This is the latest recevied weather packets stored in our database for station/object YO9FTR-10. If no packets are shown the sender has not sent any weather packets the latest 10 day(s).
| Time | Temp. | Humidity | Pressure | Rain* | Wind** | Luminosity | Snow |
|---|---|---|---|---|---|---|---|
| 1777261778 | -0.56° C | 82% | 1027.2 hPa | - | - | - | - |
| 1777260875 | -1.11° C | 87% | 1027.1 hPa | - | - | - | - |
| 1777259972 | -1.11° C | 88% | 1026.9 hPa | - | - | - | - |
| 1777259070 | -1.11° C | 86% | 1026.9 hPa | - | - | - | - |
| 1777258167 | -1.11° C | 86% | 1026.7 hPa | - | - | - | - |
| 1777257264 | -0.56° C | 83% | 1026.5 hPa | - | - | - | - |
| 1777256362 | -0.56° C | 82% | 1026.4 hPa | - | - | - | - |
| 1777255458 | 0° C | 80% | 1026.1 hPa | - | - | - | - |
| 1777254555 | 0° C | 78% | 1026.2 hPa | - | - | - | - |
| 1777253652 | 0.56° C | 75% | 1026 hPa | - | - | - | - |
| 1777252750 | 0.56° C | 72% | 1025.9 hPa | - | - | - | - |
| 1777251847 | 1.11° C | 69% | 1025.8 hPa | - | - | - | - |
| 1777250944 | 2.22° C | 64% | 1025.6 hPa | - | - | - | - |
| 1777250042 | 2.78° C | 60% | 1025.4 hPa | - | - | - | - |
| 1777249138 | 3.89° C | 52% | 1025.2 hPa | - | - | - | - |
| 1777248235 | 5° C | 46% | 1025 hPa | - | - | - | - |
| 1777247333 | 6.67° C | 35% | 1024.8 hPa | - | - | - | - |
| 1777246430 | 6.67° C | 36% | 1024.5 hPa | - | - | - | - |
| 1777245527 | 7.22° C | 32% | 1024.5 hPa | - | - | - | - |
| 1777244625 | 7.22° C | 32% | 1024.1 hPa | - | - | - | - |
| 1777243722 | 7.22° C | 33% | 1023.7 hPa | - | - | - | - |
| 1777242818 | 7.22° C | 31% | 1023.6 hPa | - | - | - | - |
| 1777241916 | 7.78° C | 30% | 1023.3 hPa | - | - | - | - |
| 1777241013 | 7.78° C | 32% | 1023.1 hPa | - | - | - | - |
| 1777240110 | 7.78° C | 32% | 1023.2 hPa | - | - | - | - |
* Rain since midnight (hover to see other rain measurements)
** Current wind speed in m/s (hover to see current wind gust speed)